createdAt,value
2018-12-20T00:00:40.680Z,98035.82
2018-12-20T00:03:09.921Z,98041.81
2018-12-20T00:05:39.027Z,98036.23
2018-12-20T00:08:08.184Z,98042.66
2018-12-20T00:10:37.360Z,98046.89
2018-12-20T00:13:06.498Z,98043.89
2018-12-20T00:15:35.770Z,98046.44
2018-12-20T00:18:04.961Z,98037.88
2018-12-20T00:20:34.170Z,98045.58
2018-12-20T00:23:03.372Z,98033.14
2018-12-20T00:25:32.552Z,98033.95
2018-12-20T00:28:01.745Z,98031.80
2018-12-20T00:30:30.870Z,98030.50
2018-12-20T00:33:00.054Z,98032.64
2018-12-20T00:35:29.367Z,98029.20
2018-12-20T00:37:58.554Z,98024.93
2018-12-20T00:40:27.742Z,98017.64
2018-12-20T00:43:00.404Z,98016.34
2018-12-20T00:45:29.659Z,98015.48
2018-12-20T00:47:58.836Z,98015.43
2018-12-20T00:50:28.063Z,98025.72
2018-12-20T00:52:57.360Z,98023.98
2018-12-20T00:55:26.914Z,98021.83
2018-12-20T00:57:56.076Z,98021.81
2018-12-20T01:00:25.342Z,98029.47
2018-12-20T01:02:55.392Z,98038.02
2018-12-20T01:05:25.095Z,98037.11
2018-12-20T01:07:55.004Z,98041.81
2018-12-20T01:10:24.186Z,98049.09
2018-12-20T01:12:53.381Z,98048.65
2018-12-20T01:15:22.650Z,98051.22
2018-12-20T01:17:51.746Z,98049.52
2018-12-20T01:20:20.848Z,98051.66
2018-12-20T01:22:50.104Z,98048.65
2018-12-20T01:25:19.301Z,98048.22
2018-12-20T01:27:48.619Z,98055.94
2018-12-20T01:30:17.859Z,98047.36
2018-12-20T01:32:46.980Z,98054.20
2018-12-20T01:35:16.258Z,98058.88
2018-12-20T01:37:45.607Z,98055.42
2018-12-20T01:40:14.751Z,98063.13
2018-12-20T01:42:44.016Z,98068.26
2018-12-20T01:45:13.290Z,98072.50
2018-12-20T01:47:42.479Z,98068.20
2018-12-20T01:50:11.655Z,98070.31
2018-12-20T01:52:40.935Z,98063.45
2018-12-20T01:55:10.363Z,98066.02
2018-12-20T01:57:39.743Z,98063.44
2018-12-20T02:00:10.669Z,98066.40
2018-12-20T02:02:39.873Z,98068.94
2018-12-20T02:05:09.227Z,98063.78
2018-12-20T02:07:38.446Z,98059.91
2018-12-20T02:10:07.895Z,98058.13
2018-12-20T02:12:37.136Z,98064.98
2018-12-20T02:15:06.829Z,98065.81
2018-12-20T02:17:35.951Z,98063.61
2018-12-20T02:20:05.468Z,98063.23
2018-12-20T02:22:34.557Z,98068.77
2018-12-20T02:25:04.623Z,98060.59
2018-12-20T02:27:33.819Z,98066.16
2018-12-20T02:30:03.084Z,98067.44
2018-12-20T02:32:32.220Z,98066.08
2018-12-20T02:35:01.319Z,98063.91
2018-12-20T02:37:30.683Z,98072.06
2018-12-20T02:40:00.149Z,98066.48
2018-12-20T02:42:29.694Z,98064.73
2018-12-20T02:44:58.901Z,98066.84
2018-12-20T02:47:30.126Z,98065.59
2018-12-20T02:49:59.713Z,98070.68
2018-12-20T02:52:29.178Z,98072.81
2018-12-20T02:54:58.819Z,98067.64
2018-12-20T02:57:28.318Z,98071.07
2018-12-20T02:59:57.658Z,98072.37
2018-12-20T03:02:28.704Z,98070.22
2018-12-20T03:04:57.877Z,98073.66
2018-12-20T03:07:27.034Z,98071.07
2018-12-20T03:09:56.280Z,98071.49
2018-12-20T03:12:25.450Z,98074.94
2018-12-20T03:14:54.859Z,98072.80
2018-12-20T03:17:24.124Z,98068.50
2018-12-20T03:19:53.240Z,98071.07
2018-12-20T03:22:22.643Z,98067.67
2018-12-20T03:24:52.004Z,98068.95
2018-12-20T03:27:21.200Z,98066.40
2018-12-20T03:29:50.500Z,98069.38
2018-12-20T03:32:19.845Z,98066.36
2018-12-20T03:34:49.002Z,98064.66
2018-12-20T03:37:18.350Z,98065.91
2018-12-20T03:39:47.626Z,98059.47
2018-12-20T03:42:16.966Z,98061.19
2018-12-20T03:44:46.156Z,98057.78
2018-12-20T03:47:15.257Z,98054.42
2018-12-20T03:49:44.392Z,98055.67
2018-12-20T03:52:13.686Z,98050.95
2018-12-20T03:54:42.812Z,98053.96
2018-12-20T03:57:11.951Z,98050.92
2018-12-20T03:59:41.125Z,98048.36
2018-12-20T04:02:10.523Z,98055.20
2018-12-20T04:04:39.611Z,98056.04
2018-12-20T04:07:08.848Z,98057.28
2018-12-20T04:09:38.063Z,98053.03
2018-12-20T04:12:07.233Z,98059.39
2018-12-20T04:14:36.328Z,98069.24
2018-12-20T04:17:05.536Z,98071.38
2018-12-20T04:19:34.707Z,98067.52
2018-12-20T04:22:04.190Z,98067.95
2018-12-20T04:24:33.302Z,98066.65
2018-12-20T04:27:02.481Z,98056.38
2018-12-20T04:29:31.847Z,98055.96
2018-12-20T04:32:00.980Z,98058.10
2018-12-20T04:34:30.116Z,98055.95
2018-12-20T04:36:59.318Z,98049.92
2018-12-20T04:39:29.064Z,98058.48
2018-12-20T04:41:58.430Z,98061.85
2018-12-20T04:44:27.914Z,98067.83
2018-12-20T04:46:57.583Z,98071.20
2018-12-20T04:49:28.429Z,98075.92
2018-12-20T04:51:57.765Z,98075.91
2018-12-20T04:54:27.223Z,98076.34
2018-12-20T04:56:56.463Z,98077.61
2018-12-20T04:59:25.890Z,98078.45
2018-12-20T05:01:55.343Z,98073.73
2018-12-20T05:04:24.641Z,98069.03
2018-12-20T05:06:53.759Z,98073.33
2018-12-20T05:09:22.955Z,98078.89
2018-12-20T05:11:52.366Z,98092.60
2018-12-20T05:14:21.545Z,98092.98
2018-12-20T05:16:50.662Z,98093.41
2018-12-20T05:19:22.728Z,98085.74
2018-12-20T05:21:51.905Z,98088.73
2018-12-20T05:24:21.133Z,98092.53
2018-12-20T05:26:50.298Z,98086.95
2018-12-20T05:29:19.636Z,98089.51
2018-12-20T05:31:48.790Z,98088.63
2018-12-20T05:34:18.117Z,98091.20
2018-12-20T05:36:47.284Z,98099.72
2018-12-20T05:39:16.517Z,98102.31
2018-12-20T05:41:45.781Z,98107.09
2018-12-20T05:44:15.752Z,98101.51
2018-12-20T05:46:44.860Z,98107.55
2018-12-20T05:49:14.038Z,98105.82
2018-12-20T05:51:43.196Z,98109.25
2018-12-20T05:54:12.319Z,98106.23
2018-12-20T05:56:41.652Z,98115.69
2018-12-20T05:59:10.886Z,98110.95
2018-12-20T06:01:39.937Z,98120.77
2018-12-20T06:04:09.210Z,98116.09
2018-12-20T06:06:40.385Z,98118.61
2018-12-20T06:09:09.567Z,98119.02
2018-12-20T06:11:38.819Z,98115.58
2018-12-20T06:14:08.359Z,98109.54
2018-12-20T06:16:37.832Z,98109.48
2018-12-20T06:19:07.371Z,98115.50
2018-12-20T06:21:36.626Z,98111.63
2018-12-20T06:24:05.736Z,98103.48
2018-12-20T06:26:34.923Z,98105.61
2018-12-20T06:29:04.083Z,98109.88
2018-12-20T06:31:33.317Z,98116.34
2018-12-20T06:34:02.415Z,98119.34
2018-12-20T06:36:31.617Z,98118.91
2018-12-20T06:39:00.743Z,98117.64
2018-12-20T06:41:29.872Z,98128.78
2018-12-20T06:44:06.971Z,98137.78
2018-12-20T06:46:30.064Z,98134.77
2018-12-20T06:48:59.259Z,98137.78
2018-12-20T06:51:28.409Z,98130.07
2018-12-20T06:53:57.545Z,98132.23
2018-12-20T06:56:26.655Z,98132.25
2018-12-20T06:58:55.758Z,98129.67
2018-12-20T07:01:24.848Z,98125.79
2018-12-20T07:03:53.958Z,98129.64
2018-12-20T07:06:23.071Z,98136.50
2018-12-20T07:08:52.165Z,98135.64
2018-12-20T07:11:21.267Z,98147.66
2018-12-20T07:13:50.359Z,98145.09
2018-12-20T07:16:19.461Z,98148.52
2018-12-20T07:18:49.063Z,98153.16
2018-12-20T07:21:18.211Z,98149.28
2018-12-20T07:23:47.343Z,98151.41
2018-12-20T07:26:16.442Z,98153.98
2018-12-20T07:28:45.639Z,98150.98
2018-12-20T07:31:14.865Z,98152.27
2018-12-20T07:33:43.968Z,98154.84
2018-12-20T07:36:13.111Z,98156.11
2018-12-20T07:38:42.254Z,98163.78
2018-12-20T07:41:11.426Z,98162.46
2018-12-20T07:43:40.588Z,98160.72
2018-12-20T07:46:09.703Z,98159.44
2018-12-20T07:48:38.816Z,98157.20
2018-12-20T07:51:07.889Z,98162.38
2018-12-20T07:53:37.030Z,98157.63
2018-12-20T07:56:06.167Z,98156.73
2018-12-20T07:58:35.310Z,98159.33
2018-12-20T08:01:04.486Z,98165.71
2018-12-20T08:03:33.589Z,98156.25
2018-12-20T08:06:02.699Z,98163.97
2018-12-20T08:08:31.813Z,98160.52
2018-12-20T08:11:00.929Z,98167.00
2018-12-20T08:13:30.046Z,98175.64
2018-12-20T08:15:59.163Z,98174.30
2018-12-20T08:18:28.274Z,98175.55
2018-12-20T08:20:57.382Z,98180.28
2018-12-20T08:23:26.508Z,98184.11
2018-12-20T08:25:55.642Z,98177.30
2018-12-20T08:28:24.736Z,98184.17
2018-12-20T08:30:53.835Z,98189.30
2018-12-20T08:33:22.913Z,98187.19
2018-12-20T08:35:52.004Z,98198.34
2018-12-20T08:38:21.100Z,98199.19
2018-12-20T08:40:50.206Z,98196.60
2018-12-20T08:43:19.309Z,98194.42
2018-12-20T08:45:48.374Z,98196.90
2018-12-20T08:48:17.495Z,98206.36
2018-12-20T08:50:46.633Z,98200.70
2018-12-20T08:53:15.696Z,98206.71
2018-12-20T08:55:44.814Z,98205.84
2018-12-20T08:58:13.929Z,98204.94
2018-12-20T09:00:43.004Z,98218.18
2018-12-20T09:03:12.148Z,98216.84
2018-12-20T09:05:41.289Z,98218.50
2018-12-20T09:08:10.654Z,98217.59
2018-12-20T09:10:39.744Z,98217.06
2018-12-20T09:13:09.758Z,98208.42
2018-12-20T09:15:39.073Z,98208.22
2018-12-20T09:18:08.171Z,98211.16
2018-12-20T09:20:37.294Z,98217.61
2018-12-20T09:23:06.601Z,98217.08
2018-12-20T09:25:35.764Z,98220.12
2018-12-20T09:28:04.871Z,98216.58
2018-12-20T09:30:34.007Z,98224.77
2018-12-20T09:33:03.168Z,98228.55
2018-12-20T09:35:33.113Z,98225.43
2018-12-20T09:38:02.262Z,98230.16
2018-12-20T09:40:31.352Z,98233.17
2018-12-20T09:43:00.466Z,98228.80
2018-12-20T09:45:29.602Z,98227.40
2018-12-20T09:48:04.362Z,98230.83
2018-12-20T09:50:33.533Z,98230.38
2018-12-20T09:53:02.625Z,98232.03
2018-12-20T09:55:31.710Z,98233.59
2018-12-20T09:58:00.808Z,98222.53
2018-12-20T10:00:30.023Z,98223.63
2018-12-20T10:02:59.099Z,98227.66
2018-12-20T10:05:28.166Z,98226.86
2018-12-20T10:07:57.329Z,98220.09
2018-12-20T10:10:27.093Z,98224.20
2018-12-20T10:12:56.265Z,98218.01
2018-12-20T10:15:25.358Z,98224.11
2018-12-20T10:17:54.593Z,98225.48
2018-12-20T10:20:23.730Z,98221.55
2018-12-20T10:22:52.836Z,98222.38
2018-12-20T10:25:21.935Z,98212.91
2018-12-20T10:27:51.099Z,98217.45
2018-12-20T10:30:20.194Z,98213.41
2018-12-20T10:32:49.348Z,98211.45
2018-12-20T10:35:18.504Z,98217.80
2018-12-20T10:37:47.644Z,98211.50
2018-12-20T10:40:16.800Z,98203.64
2018-12-20T10:42:45.904Z,98201.75
2018-12-20T10:45:15.107Z,98199.32
2018-12-20T10:47:44.262Z,98199.10
2018-12-20T10:50:13.449Z,98202.35
2018-12-20T10:52:42.879Z,98201.53
2018-12-20T10:55:12.004Z,98198.37
2018-12-20T10:57:41.081Z,98202.25
2018-12-20T11:00:10.391Z,98199.25
2018-12-20T11:02:45.018Z,98200.70
2018-12-20T11:05:19.746Z,98199.47
2018-12-20T11:07:55.768Z,98192.59
2018-12-20T11:10:27.610Z,98190.09
2018-12-20T11:12:56.791Z,98187.18
2018-12-20T11:15:26.029Z,98189.67
2018-12-20T11:17:55.128Z,98188.72
2018-12-20T11:20:24.261Z,98181.94
2018-12-20T11:22:53.352Z,98178.83
2018-12-20T11:25:22.433Z,98176.38
2018-12-20T11:27:51.538Z,98175.93
2018-12-20T11:30:20.634Z,98185.34
2018-12-20T11:32:49.762Z,98174.08
2018-12-20T11:35:18.863Z,98174.98
2018-12-20T11:37:47.957Z,98174.98
2018-12-20T11:40:17.081Z,98167.84
2018-12-20T11:42:46.147Z,98173.11
2018-12-20T11:45:15.230Z,98173.95
2018-12-20T11:47:45.970Z,98166.73
2018-12-20T11:50:15.351Z,98170.91
2018-12-20T11:52:44.476Z,98159.93
2018-12-20T11:55:13.560Z,98157.81
2018-12-20T11:57:44.748Z,98153.72
2018-12-20T12:00:13.905Z,98152.06
2018-12-20T12:02:43.044Z,98150.67
2018-12-20T12:05:12.199Z,98150.01
2018-12-20T12:07:41.330Z,98151.45
2018-12-20T12:10:10.443Z,98155.06
2018-12-20T12:12:39.517Z,98155.75
2018-12-20T12:15:08.911Z,98151.64
2018-12-20T12:17:38.004Z,98153.69
2018-12-20T12:20:07.342Z,98152.03
2018-12-20T12:22:36.443Z,98157.92
2018-12-20T12:25:06.210Z,98156.22
2018-12-20T12:27:35.353Z,98164.98
2018-12-20T12:30:05.829Z,98169.02
2018-12-20T12:32:34.973Z,98166.17
2018-12-20T12:35:04.407Z,98160.95
2018-12-20T12:37:33.469Z,98163.09
2018-12-20T12:40:02.697Z,98156.24
2018-12-20T12:42:32.254Z,98159.13
2018-12-20T12:45:01.379Z,98164.41
2018-12-20T12:47:35.907Z,98165.81
2018-12-20T12:50:05.405Z,98168.54
2018-12-20T12:52:34.463Z,98163.87
2018-12-20T12:55:03.836Z,98161.45
2018-12-20T12:57:32.903Z,98160.80
2018-12-20T13:00:02.020Z,98154.36
2018-12-20T13:02:31.153Z,98152.11
2018-12-20T13:05:00.229Z,98147.58
2018-12-20T13:07:29.291Z,98145.06
2018-12-20T13:09:58.378Z,98151.64
2018-12-20T13:12:27.469Z,98144.78
2018-12-20T13:14:56.558Z,98154.33
2018-12-20T13:17:25.632Z,98164.23
2018-12-20T13:19:54.832Z,98162.09
2018-12-20T13:22:23.873Z,98163.39
2018-12-20T13:24:53.087Z,98167.34
2018-12-20T13:27:22.153Z,98165.25
2018-12-20T13:29:51.318Z,98165.77
2018-12-20T13:32:20.471Z,98164.47
2018-12-20T13:34:49.577Z,98160.34
2018-12-20T13:37:18.672Z,98164.19
2018-12-20T13:39:47.756Z,98154.34
2018-12-20T13:42:16.871Z,98163.50
2018-12-20T13:44:45.935Z,98159.20
2018-12-20T13:47:18.977Z,98165.33
2018-12-20T13:49:48.035Z,98171.45
2018-12-20T13:52:20.924Z,98171.89
2018-12-20T13:54:53.926Z,98169.23
2018-12-20T13:57:26.794Z,98171.01
2018-12-20T13:59:59.739Z,98174.06
2018-12-20T14:02:32.591Z,98171.01
2018-12-20T14:05:06.194Z,98173.09
2018-12-20T14:07:35.622Z,98178.86
2018-12-20T14:10:08.835Z,98188.52
2018-12-20T14:12:41.778Z,98193.17
2018-12-20T14:15:14.690Z,98195.94
2018-12-20T14:17:47.677Z,98190.13
2018-12-20T14:20:20.571Z,98209.70
2018-12-20T14:22:53.472Z,98200.79
2018-12-20T14:25:26.341Z,98204.72
2018-12-20T14:27:59.232Z,98210.86
2018-12-20T14:30:32.132Z,98214.38
2018-12-20T14:33:05.046Z,98205.88
2018-12-20T14:35:37.913Z,98199.05
2018-12-20T14:38:10.828Z,98195.28
2018-12-20T14:40:43.722Z,98193.63
2018-12-20T14:43:16.643Z,98201.46
2018-12-20T14:45:49.492Z,98196.30
2018-12-20T14:48:29.048Z,98195.49
2018-12-20T14:51:02.170Z,98200.69
2018-12-20T14:53:35.062Z,98200.74
2018-12-20T14:56:07.951Z,98202.47
2018-12-20T14:58:40.982Z,98201.67
2018-12-20T15:01:13.885Z,98203.40
2018-12-20T15:03:47.532Z,98209.44
2018-12-20T15:06:20.386Z,98205.20
2018-12-20T15:08:53.332Z,98208.23
2018-12-20T15:11:26.163Z,98214.73
2018-12-20T15:13:59.074Z,98215.20
2018-12-20T15:16:32.102Z,98218.27
2018-12-20T15:19:04.993Z,98226.41
2018-12-20T15:21:37.889Z,98227.31
2018-12-20T15:24:10.782Z,98229.92
2018-12-20T15:26:43.719Z,98232.53
2018-12-20T15:29:16.636Z,98228.67
2018-12-20T15:31:53.374Z,98237.28
2018-12-20T15:34:24.500Z,98228.23
2018-12-20T15:36:57.459Z,98233.84
2018-12-20T15:39:30.325Z,98240.33
2018-12-20T15:42:03.261Z,98242.49
2018-12-20T15:44:36.153Z,98244.20
2018-12-20T15:47:09.072Z,98240.77
2018-12-20T15:49:42.344Z,98242.47
2018-12-20T15:52:15.380Z,98244.20
2018-12-20T15:54:48.263Z,98236.94
2018-12-20T15:57:21.171Z,98250.73
2018-12-20T15:59:54.159Z,98238.30
2018-12-20T16:02:28.206Z,98241.76
2018-12-20T16:05:01.298Z,98243.56
2018-12-20T16:07:34.233Z,98242.41
2018-12-20T16:10:08.516Z,98250.64
2018-12-20T16:12:41.467Z,98249.37
2018-12-20T16:15:14.332Z,98252.41
2018-12-20T16:17:47.267Z,98256.70
2018-12-20T16:20:20.884Z,98254.55
2018-12-20T16:22:54.416Z,98253.77
2018-12-20T16:25:27.363Z,98254.22
2018-12-20T16:28:00.352Z,98261.08
2018-12-20T16:30:33.253Z,98256.33
2018-12-20T16:33:06.328Z,98257.97
2018-12-20T16:35:39.227Z,98255.80
2018-12-20T16:38:12.184Z,98259.20
2018-12-20T16:40:45.182Z,98252.30
2018-12-20T16:43:16.377Z,98256.97
2018-12-20T16:45:49.292Z,98259.09
2018-12-20T16:48:24.158Z,98265.12
2018-12-20T16:50:57.051Z,98260.81
2018-12-20T16:53:29.994Z,98253.94
2018-12-20T16:56:03.007Z,98247.38
2018-12-20T16:58:36.013Z,98250.36
2018-12-20T17:01:09.769Z,98249.16
2018-12-20T17:03:42.704Z,98250.91
2018-12-20T17:06:15.718Z,98248.37
2018-12-20T17:08:48.738Z,98257.00
2018-12-20T17:11:21.682Z,98255.76
2018-12-20T17:13:54.692Z,98252.32
2018-12-20T17:16:27.703Z,98249.72
2018-12-20T17:19:00.661Z,98256.17
2018-12-20T17:21:33.641Z,98260.87
2018-12-20T17:24:06.627Z,98257.00
2018-12-20T17:26:39.614Z,98257.48
2018-12-20T17:29:12.799Z,98257.95
2018-12-20T17:31:45.943Z,98254.91
2018-12-20T17:34:18.859Z,98254.91
2018-12-20T17:36:51.878Z,98256.20
2018-12-20T17:39:24.864Z,98257.84
2018-12-20T17:41:57.790Z,98262.63
2018-12-20T17:44:30.776Z,98262.58
2018-12-20T17:47:03.986Z,98266.43
2018-12-20T17:49:36.995Z,98266.41
2018-12-20T17:52:10.312Z,98268.59
2018-12-20T17:54:43.285Z,98272.48
2018-12-20T17:57:16.357Z,98268.17
2018-12-20T17:59:49.333Z,98273.34
2018-12-20T18:02:22.294Z,98274.17
2018-12-20T18:04:55.450Z,98278.05
2018-12-20T18:07:28.985Z,98268.59
2018-12-20T18:10:01.899Z,98271.20
2018-12-20T18:12:34.950Z,98276.88
2018-12-20T18:15:09.035Z,98285.15
2018-12-20T18:17:42.086Z,98284.73
2018-12-20T18:20:15.149Z,98282.09
2018-12-20T18:22:48.144Z,98286.02
2018-12-20T18:25:21.121Z,98283.46
2018-12-20T18:27:54.127Z,98286.02
2018-12-20T18:30:27.866Z,98282.17
2018-12-20T18:33:00.878Z,98288.61
2018-12-20T18:35:33.832Z,98286.48
2018-12-20T18:38:06.768Z,98288.24
2018-12-20T18:40:39.714Z,98283.95
2018-12-20T18:43:13.506Z,98295.63
2018-12-20T18:45:47.328Z,98290.04
2018-12-20T18:48:20.186Z,98296.52
2018-12-20T18:50:53.113Z,98291.38
2018-12-20T18:53:26.071Z,98294.39
2018-12-20T18:55:58.942Z,98294.75
2018-12-20T18:58:31.830Z,98294.68
2018-12-20T19:01:04.864Z,98292.48
2018-12-20T19:03:37.764Z,98301.86
2018-12-20T19:06:10.671Z,98304.01
2018-12-20T19:08:43.532Z,98304.46
2018-12-20T19:11:16.533Z,98306.70
2018-12-20T19:13:49.406Z,98312.31
2018-12-20T19:16:22.303Z,98308.44
2018-12-20T19:18:55.284Z,98310.11
2018-12-20T19:21:28.183Z,98316.89
2018-12-20T19:24:01.159Z,98315.64
2018-12-20T19:26:34.071Z,98318.63
2018-12-20T19:29:06.937Z,98313.77
2018-12-20T19:31:39.879Z,98317.60
2018-12-20T19:34:12.761Z,98317.11
2018-12-20T19:36:45.657Z,98312.86
2018-12-20T19:39:18.544Z,98320.55
2018-12-20T19:41:51.478Z,98322.70
2018-12-20T19:44:24.369Z,98318.02
2018-12-20T19:46:57.338Z,98316.33
2018-12-20T19:49:28.845Z,98316.78
2018-12-20T19:52:01.770Z,98317.68
2018-12-20T19:54:34.692Z,98318.64
2018-12-20T19:57:07.650Z,98321.79
2018-12-20T19:59:40.635Z,98324.33
2018-12-20T20:02:13.730Z,98322.19
2018-12-20T20:04:46.627Z,98330.70
2018-12-20T20:07:19.546Z,98338.81
2018-12-20T20:09:52.459Z,98339.20
2018-12-20T20:12:25.373Z,98340.97
2018-12-20T20:14:58.340Z,98344.06
2018-12-20T20:17:31.256Z,98341.73
2018-12-20T20:20:13.510Z,98348.84
2018-12-20T20:22:40.204Z,98353.36
2018-12-20T20:25:13.142Z,98353.82
2018-12-20T20:27:46.202Z,98352.83
2018-12-20T20:30:19.177Z,98350.99
2018-12-20T20:32:52.025Z,98357.39
2018-12-20T20:35:24.883Z,98346.53
2018-12-20T20:37:57.793Z,98345.16
2018-12-20T20:40:30.683Z,98342.51
2018-12-20T20:43:03.568Z,98348.48
2018-12-20T20:45:36.422Z,98344.13
2018-12-20T20:48:09.409Z,98348.88
2018-12-20T20:50:42.283Z,98338.53
2018-12-20T20:53:15.259Z,98338.55
2018-12-20T20:55:48.135Z,98336.83
2018-12-20T20:58:21.056Z,98338.11
2018-12-20T21:00:53.970Z,98349.73
2018-12-20T21:03:26.879Z,98348.90
2018-12-20T21:05:59.841Z,98348.11
2018-12-20T21:08:32.838Z,98353.31
2018-12-20T21:11:05.727Z,98350.34
2018-12-20T21:13:38.596Z,98353.84
2018-12-20T21:16:11.508Z,98352.53
2018-12-20T21:18:44.420Z,98343.94
2018-12-20T21:21:20.320Z,98347.33
2018-12-20T21:23:53.270Z,98343.06
2018-12-20T21:26:26.364Z,98344.36
2018-12-20T21:28:59.293Z,98352.98
2018-12-20T21:31:32.400Z,98357.34
2018-12-20T21:34:05.415Z,98361.27
2018-12-20T21:36:38.489Z,98362.98
2018-12-20T21:39:11.492Z,98368.96
2018-12-20T21:41:44.361Z,98373.69
2018-12-20T21:44:17.313Z,98375.03
2018-12-20T21:46:50.198Z,98371.59
2018-12-20T21:49:23.208Z,98370.30
2018-12-20T21:51:56.130Z,98367.67
2018-12-20T21:54:29.033Z,98362.05
2018-12-20T21:57:01.985Z,98361.63
2018-12-20T21:59:34.901Z,98366.75
2018-12-20T22:02:07.769Z,98365.81
2018-12-20T22:04:40.677Z,98365.27
2018-12-20T22:07:13.539Z,98365.26
2018-12-20T22:09:46.459Z,98357.52
2018-12-20T22:12:19.312Z,98365.58
2018-12-20T22:14:52.184Z,98362.09
2018-12-20T22:17:25.065Z,98361.67
2018-12-20T22:19:58.659Z,98352.75
2018-12-20T22:22:31.847Z,98356.73
2018-12-20T22:25:05.060Z,98353.34
2018-12-20T22:27:37.940Z,98356.86
2018-12-20T22:32:49.978Z,98351.59
2018-12-20T22:35:24.883Z,98354.70
2018-12-20T22:37:57.822Z,98352.23
2018-12-20T22:40:30.721Z,98353.59
2018-12-20T22:43:03.672Z,98351.05
2018-12-20T22:45:36.583Z,98354.97
2018-12-20T22:48:05.662Z,98354.54
2018-12-20T22:50:38.563Z,98351.17
2018-12-20T22:53:11.426Z,98346.56
2018-12-20T22:55:44.340Z,98347.53
2018-12-20T22:58:17.205Z,98351.45
2018-12-20T23:00:54.344Z,98344.99
2018-12-20T23:03:27.205Z,98345.80
2018-12-20T23:06:01.423Z,98350.81
2018-12-20T23:08:34.552Z,98351.23
2018-12-20T23:11:07.628Z,98359.48
2018-12-20T23:13:40.512Z,98350.89
2018-12-20T23:16:13.380Z,98351.75
2018-12-20T23:18:46.276Z,98358.70
2018-12-20T23:21:19.316Z,98345.13
2018-12-20T23:23:52.168Z,98349.61
2018-12-20T23:26:25.049Z,98349.34
2018-12-20T23:28:57.934Z,98348.17
2018-12-20T23:31:30.856Z,98345.27
2018-12-20T23:34:03.849Z,98341.89
2018-12-20T23:36:36.745Z,98340.69
2018-12-20T23:39:09.661Z,98341.14
2018-12-20T23:41:38.730Z,98332.57
2018-12-20T23:44:11.640Z,98327.05
2018-12-20T23:46:44.529Z,98327.03
2018-12-20T23:49:17.402Z,98330.40
2018-12-20T23:51:50.334Z,98333.82
2018-12-20T23:54:23.224Z,98327.76
2018-12-20T23:56:57.825Z,98329.02
2018-12-20T23:59:30.896Z,98328.56
